createdAt,value
2023-01-13T00:00:05.585Z,5.96
2023-01-13T00:02:37.054Z,5.76
2023-01-13T00:05:05.274Z,5.84
2023-01-13T00:07:32.629Z,6.17
2023-01-13T00:10:01.007Z,6.26
2023-01-13T00:12:28.483Z,6.33
2023-01-13T00:14:56.055Z,6.21
2023-01-13T00:17:23.496Z,6.17
2023-01-13T00:19:50.541Z,6.40
2023-01-13T00:22:17.786Z,6.32
2023-01-13T00:24:46.178Z,6.42
2023-01-13T00:27:18.287Z,6.38
2023-01-13T00:29:45.318Z,6.45
2023-01-13T00:32:12.249Z,6.28
2023-01-13T00:34:46.757Z,6.31
2023-01-13T00:37:13.558Z,5.99
2023-01-13T00:40:00.163Z,5.76
2023-01-13T00:42:27.335Z,6.15
2023-01-13T00:44:55.716Z,6.21
2023-01-13T00:47:29.685Z,6.33
2023-01-13T00:50:02.282Z,5.95
2023-01-13T00:52:36.572Z,6.86
2023-01-13T00:55:04.335Z,6.67
2023-01-13T00:57:31.037Z,6.16
2023-01-13T00:59:58.076Z,6.25
2023-01-13T01:02:30.911Z,6.36
2023-01-13T01:04:58.077Z,6.58
2023-01-13T01:07:25.161Z,6.64
2023-01-13T01:09:52.572Z,6.34
2023-01-13T01:12:19.680Z,6.31
2023-01-13T01:14:48.568Z,6.33
2023-01-13T01:17:19.180Z,6.44
2023-01-13T01:19:47.690Z,6.78
2023-01-13T01:22:21.705Z,6.22
2023-01-13T01:24:49.656Z,6.63
2023-01-13T01:27:16.691Z,7.01
2023-01-13T01:29:43.459Z,6.72
2023-01-13T01:32:10.465Z,6.38
2023-01-13T01:34:37.203Z,6.38
2023-01-13T01:37:04.311Z,6.35
2023-01-13T01:39:31.453Z,6.51
2023-01-13T01:42:04.376Z,6.48
2023-01-13T01:44:50.758Z,6.56
2023-01-13T01:47:18.116Z,6.51
2023-01-13T01:49:51.671Z,7.07
2023-01-13T01:52:40.755Z,6.79
2023-01-13T01:55:42.830Z,6.52
2023-01-13T01:58:22.492Z,7.10
2023-01-13T02:00:53.277Z,6.40
2023-01-13T02:03:20.280Z,6.55
2023-01-13T02:05:47.277Z,6.39
2023-01-13T02:08:20.121Z,6.25
2023-01-13T02:10:50.472Z,6.37
2023-01-13T02:13:17.751Z,6.36
2023-01-13T02:15:56.914Z,6.39
2023-01-13T02:19:02.128Z,6.28
2023-01-13T02:22:15.329Z,6.37
2023-01-13T02:25:11.935Z,6.40
2023-01-13T02:28:03.567Z,6.44
2023-01-13T02:30:37.293Z,6.44
2023-01-13T02:33:23.199Z,6.45
2023-01-13T02:35:59.908Z,6.45
2023-01-13T02:38:39.521Z,6.55
2023-01-13T02:41:13.337Z,6.46
2023-01-13T02:43:40.366Z,6.40
2023-01-13T02:46:20.619Z,6.52
2023-01-13T02:48:47.715Z,6.56
2023-01-13T02:51:19.004Z,6.49
2023-01-13T02:54:12.964Z,6.52
2023-01-13T02:56:44.462Z,6.52
2023-01-13T02:59:11.500Z,6.49
2023-01-13T03:01:43.884Z,6.54
2023-01-13T03:04:15.661Z,6.46
2023-01-13T03:07:00.886Z,6.51
2023-01-13T03:09:39.577Z,6.67
2023-01-13T03:12:54.888Z,6.62
2023-01-13T03:15:29.731Z,6.78
2023-01-13T03:18:19.965Z,6.68
2023-01-13T03:21:02.710Z,6.52
2023-01-13T03:23:50.352Z,6.62
2023-01-13T03:26:50.656Z,6.63
2023-01-13T03:29:20.909Z,6.44
2023-01-13T03:31:56.395Z,6.35
2023-01-13T03:34:25.417Z,6.50
2023-01-13T03:36:57.284Z,6.36
2023-01-13T03:39:30.059Z,6.60
2023-01-13T03:42:07.698Z,6.45
2023-01-13T03:45:05.598Z,6.43
2023-01-13T03:47:50.881Z,6.20
2023-01-13T03:50:22.549Z,6.17
2023-01-13T03:52:51.983Z,6.19
2023-01-13T03:55:22.531Z,6.13
2023-01-13T03:58:10.973Z,6.18
2023-01-13T04:00:58.800Z,6.31
2023-01-13T04:03:51.105Z,6.38
2023-01-13T04:06:37.166Z,6.31
2023-01-13T04:09:21.046Z,6.17
2023-01-13T04:12:07.669Z,6.09
2023-01-13T04:14:34.763Z,6.10
2023-01-13T04:17:07.533Z,6.13
2023-01-13T04:19:34.554Z,6.20
2023-01-13T04:22:02.347Z,6.25
2023-01-13T04:24:29.377Z,6.14
2023-01-13T04:26:59.009Z,6.09
2023-01-13T04:29:27.198Z,6.28
2023-01-13T04:31:54.309Z,6.11
2023-01-13T04:34:21.416Z,6.21
2023-01-13T04:36:48.605Z,6.41
2023-01-13T04:39:21.493Z,6.27
2023-01-13T04:41:48.582Z,5.96
2023-01-13T04:44:18.477Z,5.84
2023-01-13T04:46:47.539Z,5.74
2023-01-13T04:49:14.569Z,5.54
2023-01-13T04:51:41.387Z,5.53
2023-01-13T04:54:10.229Z,5.47
2023-01-13T04:56:38.258Z,5.38
2023-01-13T04:59:07.198Z,5.26
2023-01-13T05:01:34.349Z,5.28
2023-01-13T05:04:01.389Z,5.43
2023-01-13T05:06:31.140Z,5.39
2023-01-13T05:08:58.256Z,5.53
2023-01-13T05:11:28.581Z,5.71
2023-01-13T05:13:56.137Z,5.58
2023-01-13T05:16:23.227Z,5.59
2023-01-13T05:19:15.013Z,5.46
2023-01-13T05:21:44.568Z,5.46
2023-01-13T05:24:12.769Z,5.52
2023-01-13T05:26:49.406Z,5.20
2023-01-13T05:29:17.395Z,5.19
2023-01-13T05:31:44.391Z,5.16
2023-01-13T05:34:11.381Z,5.33
2023-01-13T05:36:39.804Z,5.26
2023-01-13T05:39:09.735Z,5.36
2023-01-13T05:41:36.495Z,5.21
2023-01-13T05:44:03.526Z,5.29
2023-01-13T05:46:30.347Z,5.18
2023-01-13T05:49:00.062Z,5.11
2023-01-13T05:51:28.587Z,5.12
2023-01-13T05:53:55.676Z,5.20
2023-01-13T05:56:25.217Z,5.08
2023-01-13T05:58:52.022Z,4.98
2023-01-13T06:01:19.128Z,5.00
2023-01-13T06:03:45.944Z,5.07
2023-01-13T06:06:16.431Z,5.08
2023-01-13T06:08:45.258Z,4.98
2023-01-13T06:11:14.946Z,4.92
2023-01-13T06:13:42.533Z,4.93
2023-01-13T06:16:10.713Z,4.87
2023-01-13T06:18:38.738Z,4.95
2023-01-13T06:21:05.661Z,4.89
2023-01-13T06:23:32.455Z,5.06
2023-01-13T06:26:15.459Z,4.95
2023-01-13T06:28:42.254Z,4.89
2023-01-13T06:31:10.298Z,4.84
2023-01-13T06:33:38.009Z,4.76
2023-01-13T06:36:09.069Z,4.81
2023-01-13T06:38:37.442Z,4.97
2023-01-13T06:41:10.228Z,5.02
2023-01-13T06:43:37.969Z,4.99
2023-01-13T06:46:05.317Z,4.82
2023-01-13T06:48:33.919Z,5.02
2023-01-13T06:51:05.424Z,5.16
2023-01-13T06:53:32.242Z,4.92
2023-01-13T06:55:59.331Z,4.97
2023-01-13T06:58:26.072Z,4.90
2023-01-13T07:00:52.841Z,4.96
2023-01-13T07:03:20.170Z,4.93
2023-01-13T07:05:57.351Z,5.13
2023-01-13T07:08:24.120Z,4.85
2023-01-13T07:10:51.304Z,4.89
2023-01-13T07:13:18.206Z,4.94
2023-01-13T07:15:53.309Z,4.96
2023-01-13T07:18:20.106Z,5.13
2023-01-13T07:20:52.658Z,5.38
2023-01-13T07:23:19.710Z,5.14
2023-01-13T07:25:46.758Z,5.36
2023-01-13T07:28:16.063Z,5.12
2023-01-13T07:30:43.106Z,5.02
2023-01-13T07:33:10.195Z,4.95
2023-01-13T07:35:37.275Z,4.91
2023-01-13T07:38:04.253Z,4.67
2023-01-13T07:40:31.306Z,4.72
2023-01-13T07:43:03.674Z,4.75
2023-01-13T07:45:40.397Z,5.06
2023-01-13T07:48:07.508Z,4.92
2023-01-13T07:50:34.606Z,4.91
2023-01-13T07:53:01.714Z,4.88
2023-01-13T07:55:44.910Z,5.04
2023-01-13T07:58:12.956Z,5.06
2023-01-13T08:00:40.404Z,4.94
2023-01-13T08:03:13.700Z,4.81
2023-01-13T08:05:42.061Z,4.82
2023-01-13T08:08:09.013Z,4.84
2023-01-13T08:10:35.981Z,4.95
2023-01-13T08:13:10.439Z,4.86
2023-01-13T08:15:40.190Z,4.81
2023-01-13T08:18:11.147Z,4.87
2023-01-13T08:20:39.051Z,4.88
2023-01-13T08:23:07.941Z,4.94
2023-01-13T08:25:34.999Z,5.07
2023-01-13T08:28:02.435Z,4.94
2023-01-13T08:30:30.435Z,4.97
2023-01-13T08:33:04.722Z,4.90
2023-01-13T08:35:31.801Z,4.93
2023-01-13T08:37:58.844Z,5.10
2023-01-13T08:40:25.891Z,5.10
2023-01-13T08:42:59.294Z,4.94
2023-01-13T08:45:28.963Z,5.14
2023-01-13T08:47:56.211Z,5.13
2023-01-13T08:50:23.198Z,5.13
2023-01-13T08:52:50.279Z,5.18
2023-01-13T08:55:17.129Z,5.07
2023-01-13T08:57:50.955Z,5.00
2023-01-13T09:00:18.950Z,5.23
2023-01-13T09:02:46.030Z,5.23
2023-01-13T09:05:13.072Z,5.09
2023-01-13T09:07:40.088Z,5.21
2023-01-13T09:10:08.133Z,5.14
2023-01-13T09:12:35.250Z,5.23
2023-01-13T09:15:02.428Z,5.20
2023-01-13T09:17:29.701Z,5.26
2023-01-13T09:19:57.888Z,5.40
2023-01-13T09:22:27.645Z,5.36
2023-01-13T09:24:54.630Z,5.39
2023-01-13T09:27:21.383Z,5.57
2023-01-13T09:29:48.874Z,5.46
2023-01-13T09:32:16.111Z,5.42
2023-01-13T09:34:43.240Z,5.64
2023-01-13T09:37:11.968Z,5.75
2023-01-13T09:39:39.809Z,5.74
2023-01-13T09:42:26.912Z,6.27
2023-01-13T09:45:13.379Z,6.27
2023-01-13T09:47:44.587Z,6.44
2023-01-13T09:50:35.267Z,6.21
2023-01-13T09:53:02.247Z,6.29
2023-01-13T09:55:48.907Z,6.17
2023-01-13T09:58:18.881Z,5.81
2023-01-13T10:00:50.336Z,5.72
2023-01-13T10:03:33.505Z,5.64
2023-01-13T10:06:12.314Z,6.02
2023-01-13T10:08:40.352Z,6.21
2023-01-13T10:11:24.386Z,6.23
2023-01-13T10:13:59.106Z,5.97
2023-01-13T10:16:35.448Z,6.01
2023-01-13T10:19:20.918Z,6.54
2023-01-13T10:22:03.382Z,6.66
2023-01-13T10:24:45.381Z,6.44
2023-01-13T10:27:27.968Z,6.42
2023-01-13T10:29:54.826Z,6.40
2023-01-13T10:32:22.544Z,6.51
2023-01-13T10:34:50.912Z,6.63
2023-01-13T10:37:26.297Z,7.02
2023-01-13T10:39:56.946Z,6.97
2023-01-13T10:42:23.892Z,6.70
2023-01-13T10:44:51.610Z,6.49
2023-01-13T10:47:35.932Z,6.59
2023-01-13T10:50:09.638Z,6.66
2023-01-13T10:52:58.163Z,6.53
2023-01-13T10:55:34.375Z,7.56
2023-01-13T10:58:18.644Z,7.17
2023-01-13T11:00:45.763Z,7.51
2023-01-13T11:03:22.613Z,7.25
2023-01-13T11:05:54.859Z,7.38
2023-01-13T11:08:26.837Z,7.67
2023-01-13T11:10:55.417Z,7.52
2023-01-13T11:13:40.377Z,8.07
2023-01-13T11:16:14.656Z,8.10
2023-01-13T11:18:45.774Z,7.90
2023-01-13T11:21:22.879Z,8.41
2023-01-13T11:24:26.221Z,8.02
2023-01-13T11:26:59.493Z,8.04
2023-01-13T11:29:57.210Z,8.14
2023-01-13T11:32:24.062Z,7.51
2023-01-13T11:35:17.921Z,7.90
2023-01-13T11:37:47.751Z,7.82
2023-01-13T11:40:40.633Z,7.66
2023-01-13T11:43:38.533Z,7.81
2023-01-13T11:46:06.759Z,7.76
2023-01-13T11:48:37.359Z,7.80
2023-01-13T11:51:15.446Z,8.01
2023-01-13T11:54:05.528Z,7.72
2023-01-13T11:57:14.689Z,7.84
2023-01-13T11:59:56.326Z,7.99
2023-01-13T12:02:50.531Z,8.23
2023-01-13T12:05:36.731Z,7.96
2023-01-13T12:08:20.719Z,8.03
2023-01-13T12:11:09.551Z,7.80
2023-01-13T12:14:01.152Z,7.67
2023-01-13T12:16:31.724Z,7.91
2023-01-13T12:19:24.561Z,8.27
2023-01-13T12:22:15.625Z,8.07
2023-01-13T12:24:57.580Z,8.46
2023-01-13T12:27:47.788Z,8.34
2023-01-13T12:30:35.705Z,8.54
2023-01-13T12:33:18.788Z,8.95
2023-01-13T12:36:15.233Z,8.97
2023-01-13T12:38:46.180Z,9.22
2023-01-13T12:41:19.796Z,8.72
2023-01-13T12:43:48.785Z,8.96
2023-01-13T12:46:19.025Z,8.84
2023-01-13T12:48:49.576Z,8.77
2023-01-13T12:51:37.941Z,8.88
2023-01-13T12:54:53.923Z,8.86
2023-01-13T12:57:29.190Z,8.98
2023-01-13T13:00:05.305Z,8.81
2023-01-13T13:02:36.456Z,8.81
2023-01-13T13:05:28.215Z,8.62
2023-01-13T13:08:16.163Z,8.70
2023-01-13T13:10:47.812Z,8.54
2023-01-13T13:13:39.513Z,8.93
2023-01-13T13:16:49.084Z,8.89
2023-01-13T13:19:25.138Z,8.96
2023-01-13T13:22:12.297Z,8.73
2023-01-13T13:24:48.554Z,8.52
2023-01-13T13:27:24.655Z,8.57
2023-01-13T13:30:00.930Z,8.80
2023-01-13T13:32:42.712Z,8.99
2023-01-13T13:35:46.872Z,8.90
2023-01-13T13:38:40.859Z,8.74
2023-01-13T13:41:17.055Z,8.78
2023-01-13T13:43:44.989Z,8.77
2023-01-13T13:46:28.802Z,8.80
2023-01-13T13:48:55.568Z,8.56
2023-01-13T13:51:30.827Z,8.56
2023-01-13T13:53:58.231Z,8.55
2023-01-13T13:56:26.886Z,8.39
2023-01-13T13:58:55.267Z,8.24
2023-01-13T14:01:25.891Z,8.18
2023-01-13T14:04:13.891Z,8.17
2023-01-13T14:07:05.004Z,8.23
2023-01-13T14:09:41.080Z,8.25
2023-01-13T14:12:19.061Z,8.12
2023-01-13T14:14:46.655Z,8.16
2023-01-13T14:17:25.813Z,8.30
2023-01-13T14:20:06.125Z,8.39
2023-01-13T14:22:32.839Z,7.96
2023-01-13T14:25:02.598Z,8.25
2023-01-13T14:27:29.671Z,8.39
2023-01-13T14:29:58.293Z,8.25
2023-01-13T14:32:35.707Z,8.45
2023-01-13T14:35:06.102Z,8.42
2023-01-13T14:37:40.455Z,8.51
2023-01-13T14:40:33.769Z,8.43
2023-01-13T14:43:03.614Z,8.35
2023-01-13T14:45:30.501Z,8.36
2023-01-13T14:48:07.656Z,8.54
2023-01-13T14:50:34.373Z,8.33
2023-01-13T14:53:01.121Z,8.36
2023-01-13T14:55:34.467Z,8.45
2023-01-13T14:58:21.970Z,8.54
2023-01-13T15:00:50.433Z,8.36
2023-01-13T15:03:18.658Z,8.34
2023-01-13T15:05:53.601Z,8.37
2023-01-13T15:08:31.750Z,7.87
2023-01-13T15:11:03.249Z,7.90
2023-01-13T15:13:32.216Z,7.91
2023-01-13T15:16:00.098Z,7.94
2023-01-13T15:18:26.877Z,7.82
2023-01-13T15:20:53.583Z,8.02
2023-01-13T15:23:21.343Z,7.96
2023-01-13T15:25:51.171Z,7.87
2023-01-13T15:28:25.044Z,7.87
2023-01-13T15:30:52.763Z,7.66
2023-01-13T15:33:20.460Z,7.64
2023-01-13T15:35:51.104Z,7.69
2023-01-13T15:38:22.789Z,7.58
2023-01-13T15:40:50.498Z,7.62
2023-01-13T15:43:18.619Z,7.73
2023-01-13T15:45:45.788Z,7.67
2023-01-13T15:48:13.084Z,7.60
2023-01-13T15:50:46.342Z,7.40
2023-01-13T15:53:14.427Z,7.46
2023-01-13T15:58:24.536Z,7.56
2023-01-13T16:00:51.310Z,7.42
2023-01-13T16:03:18.211Z,7.46
2023-01-13T16:05:44.951Z,7.41
2023-01-13T16:08:15.687Z,7.57
2023-01-13T16:10:43.006Z,7.56
2023-01-13T16:13:09.720Z,7.46
2023-01-13T16:15:42.896Z,7.42
2023-01-13T16:18:16.160Z,7.59
2023-01-13T16:20:43.036Z,7.64
2023-01-13T16:23:10.308Z,7.63
2023-01-13T16:25:37.095Z,7.63
2023-01-13T16:28:04.113Z,7.59
2023-01-13T16:30:32.879Z,7.41
2023-01-13T16:33:00.540Z,7.50
2023-01-13T16:35:27.603Z,7.54
2023-01-13T16:37:57.541Z,7.44
2023-01-13T16:40:31.833Z,7.63
2023-01-13T16:42:58.750Z,7.66
2023-01-13T16:45:25.485Z,7.66
2023-01-13T16:47:52.967Z,7.72
2023-01-13T16:50:40.586Z,7.69
2023-01-13T16:53:11.251Z,7.69
2023-01-13T16:55:38.593Z,7.61
2023-01-13T16:58:05.662Z,7.44
2023-01-13T17:00:33.525Z,7.41
2023-01-13T17:03:00.627Z,7.46
2023-01-13T17:05:27.426Z,7.38
2023-01-13T17:07:57.053Z,7.39
2023-01-13T17:10:26.495Z,7.29
2023-01-13T17:12:54.010Z,7.37
2023-01-13T17:15:23.343Z,7.34
2023-01-13T17:17:50.153Z,7.24
2023-01-13T17:20:19.644Z,7.21
2023-01-13T17:22:57.720Z,7.27
2023-01-13T17:25:24.830Z,7.18
2023-01-13T17:27:56.661Z,7.26
2023-01-13T17:30:24.146Z,7.36
2023-01-13T17:32:51.188Z,7.13
2023-01-13T17:35:27.158Z,7.25
2023-01-13T17:37:55.036Z,7.21
2023-01-13T17:40:22.358Z,7.22
2023-01-13T17:42:49.578Z,7.25
2023-01-13T17:45:17.522Z,7.14
2023-01-13T17:47:45.189Z,7.22
2023-01-13T17:50:17.050Z,7.03
2023-01-13T17:52:43.753Z,6.97
2023-01-13T17:55:10.870Z,6.96
2023-01-13T17:57:38.105Z,6.93
2023-01-13T18:00:05.897Z,6.80
2023-01-13T18:02:33.195Z,6.79
2023-01-13T18:05:00.263Z,6.94
2023-01-13T18:07:27.182Z,6.97
2023-01-13T18:09:54.445Z,6.86
2023-01-13T18:12:21.445Z,6.83
2023-01-13T18:14:49.745Z,6.80
2023-01-13T18:17:16.934Z,6.76
2023-01-13T18:19:44.428Z,6.69
2023-01-13T18:22:14.578Z,6.75
2023-01-13T18:24:41.622Z,6.75
2023-01-13T18:27:14.909Z,6.74
2023-01-13T18:29:41.654Z,6.57
2023-01-13T18:32:08.824Z,6.80
2023-01-13T18:35:04.961Z,6.71
2023-01-13T18:37:32.836Z,6.80
2023-01-13T18:39:59.843Z,6.71
2023-01-13T18:42:26.912Z,6.70
2023-01-13T18:44:53.626Z,6.69
2023-01-13T18:47:20.546Z,6.73
2023-01-13T18:49:47.362Z,6.93
2023-01-13T18:52:14.853Z,7.11
2023-01-13T18:54:42.592Z,7.09
2023-01-13T18:57:09.798Z,7.08
2023-01-13T18:59:40.983Z,7.26
2023-01-13T19:02:14.433Z,7.40
2023-01-13T19:04:41.209Z,7.29
2023-01-13T19:07:07.934Z,7.27
2023-01-13T19:09:34.734Z,7.39
2023-01-13T19:12:04.308Z,7.35
2023-01-13T19:14:32.015Z,7.68
2023-01-13T19:17:02.471Z,7.68
2023-01-13T19:19:32.321Z,8.18
2023-01-13T19:22:01.925Z,8.03
2023-01-13T19:24:28.607Z,7.98
2023-01-13T19:26:55.920Z,8.04
2023-01-13T19:29:23.742Z,8.09
2023-01-13T19:31:50.407Z,8.44
2023-01-13T19:34:18.700Z,8.57
2023-01-13T19:36:45.626Z,8.19
2023-01-13T19:39:12.633Z,8.47
2023-01-13T19:41:39.621Z,7.60
2023-01-13T19:44:06.677Z,7.55
2023-01-13T19:46:33.703Z,7.13
2023-01-13T19:49:00.752Z,6.81
2023-01-13T19:53:04.286Z,6.56
2023-01-13T19:54:27.500Z,6.31
2023-01-13T19:56:54.213Z,6.09
2023-01-13T19:59:22.362Z,6.14
2023-01-13T20:01:51.901Z,5.97
2023-01-13T20:04:18.928Z,6.13
2023-01-13T20:06:45.695Z,6.18
2023-01-13T20:09:13.256Z,6.18
2023-01-13T20:11:39.925Z,6.20
2023-01-13T20:14:26.471Z,6.14
2023-01-13T20:16:56.105Z,6.07
2023-01-13T20:19:23.340Z,6.37
2023-01-13T20:21:51.307Z,6.23
2023-01-13T20:24:18.408Z,6.40
2023-01-13T20:26:45.504Z,6.44
2023-01-13T20:29:12.294Z,6.43
2023-01-13T20:31:43.312Z,6.55
2023-01-13T20:34:10.880Z,6.53
2023-01-13T20:36:38.409Z,6.56
2023-01-13T20:39:06.081Z,6.91
2023-01-13T20:41:32.758Z,6.84
2023-01-13T20:43:59.775Z,6.93
2023-01-13T20:46:29.392Z,6.84
2023-01-13T20:48:56.110Z,6.80
2023-01-13T20:51:26.294Z,6.71
2023-01-13T20:53:56.287Z,6.76
2023-01-13T20:56:23.322Z,6.51
2023-01-13T20:58:52.549Z,6.19
2023-01-13T21:01:22.337Z,6.35
2023-01-13T21:03:54.854Z,6.18
2023-01-13T21:06:21.954Z,6.36
2023-01-13T21:08:49.795Z,6.20
2023-01-13T21:11:16.832Z,6.18
2023-01-13T21:13:44.029Z,6.35
2023-01-13T21:16:14.174Z,6.20
2023-01-13T21:18:40.976Z,6.10
2023-01-13T21:21:08.664Z,6.47
2023-01-13T21:23:35.716Z,6.34
2023-01-13T21:26:04.897Z,6.46
2023-01-13T21:28:31.891Z,6.52
2023-01-13T21:31:05.918Z,6.26
2023-01-13T21:33:32.619Z,6.36
2023-01-13T21:36:06.957Z,6.54
2023-01-13T21:38:33.967Z,6.43
2023-01-13T21:41:02.430Z,6.22
2023-01-13T21:43:29.386Z,6.27
2023-01-13T21:45:56.511Z,6.13
2023-01-13T21:48:23.514Z,6.19
2023-01-13T21:50:50.556Z,6.00
2023-01-13T21:53:17.630Z,6.00
2023-01-13T21:55:44.671Z,6.01
2023-01-13T21:58:13.328Z,6.10
2023-01-13T22:00:42.667Z,6.43
2023-01-13T22:03:09.672Z,6.33
2023-01-13T22:05:39.306Z,6.37
2023-01-13T22:08:10.891Z,6.57
2023-01-13T22:10:38.103Z,6.90
2023-01-13T22:13:04.792Z,6.87
2023-01-13T22:15:56.660Z,7.28
2023-01-13T22:18:23.719Z,7.44
2023-01-13T22:20:50.517Z,7.27
2023-01-13T22:23:17.569Z,6.87
2023-01-13T22:25:44.327Z,7.38
2023-01-13T22:28:11.493Z,7.22
2023-01-13T22:30:38.980Z,6.98
2023-01-13T22:33:06.022Z,6.94
2023-01-13T22:35:33.072Z,7.17
2023-01-13T22:38:01.712Z,6.80
2023-01-13T22:40:31.717Z,6.50
2023-01-13T22:42:58.699Z,6.89
2023-01-13T22:45:25.697Z,6.81
2023-01-13T22:47:52.693Z,6.90
2023-01-13T22:50:19.584Z,6.94
2023-01-13T22:52:49.318Z,7.17
2023-01-13T22:55:16.247Z,6.81
2023-01-13T22:57:47.962Z,6.54
2023-01-13T23:00:16.376Z,6.86
2023-01-13T23:02:43.427Z,6.89
2023-01-13T23:05:10.143Z,6.83
2023-01-13T23:07:37.180Z,6.39
2023-01-13T23:10:04.390Z,6.30
2023-01-13T23:12:31.491Z,6.25
2023-01-13T23:14:58.486Z,6.32
2023-01-13T23:17:25.301Z,5.88
2023-01-13T23:19:55.342Z,5.82
2023-01-13T23:22:22.088Z,6.13
2023-01-13T23:24:49.110Z,6.29
2023-01-13T23:27:16.147Z,5.98
2023-01-13T23:29:43.159Z,6.01
2023-01-13T23:32:09.920Z,6.42
2023-01-13T23:34:36.970Z,6.18
2023-01-13T23:37:03.663Z,6.01
2023-01-13T23:39:30.689Z,6.06
2023-01-13T23:41:58.641Z,6.10
2023-01-13T23:44:26.842Z,5.97
2023-01-13T23:46:56.428Z,6.34
2023-01-13T23:49:23.885Z,6.29
2023-01-13T23:51:51.314Z,6.41
2023-01-13T23:54:18.106Z,6.42
2023-01-13T23:56:44.851Z,6.38
2023-01-13T23:59:13.058Z,6.58
